KEBS/EBS METAR and TAF weather

Enter ICAO airport designator
Station Type Date Time Source
KEBS METAR 2021/08/05 04:55 UTC NOAA

KEBS 050455Z AUTO 16006KT 10SM SCT075 BKN090 18/17 A3004 RMK AO2


Station Type Date Time Source
KEBS Decoded METAR 2021/08/05 04:55 UTC NOAA

Webster City, IA, United States (KEBS) 42-26N 093-52W
Aug 05, 2021 - 12:55 AM EDT / 2021.08.05 0455 UTC
Wind: from the SSE (160 degrees) at 7 MPH (6 KT):0
Visibility: 10 mile(s):0
Sky conditions: mostly cloudy
Temperature: 64 F (18 C)
Dew Point: 62 F (17 C)
Relative Humidity: 93%
Pressure (altimeter): 30.04 in. Hg (1017 hPa)
ob: KEBS 050455Z AUTO 16006KT 10SM SCT075 BKN090 18/17 A3004 RMK AO2
cycle: 5

Station Type Date Time Source
KEBS TAF UTC NOAA

Error!

Example: see airport list